Time,TemperatureF,DewpointF,PressureIn,WindDirection,WindDirectionDegrees,WindSpeedMPH,WindSpeedGustMPH,Humidity,HourlyPrecipIn,Conditions,Clouds,dailyrainin,SoftwareType,DateUTC
2013-02-20 00:02:00,42.0,35.0,29.80,West,270,10.0,19.0,75,0.00,,,0.09,,2013-02-20 05:02:00,
2013-02-20 00:12:00,42.0,35.0,29.80,West,270,10.0,19.0,75,0.00,,,0.09,,2013-02-20 05:12:00,
2013-02-20 00:22:00,41.0,32.0,29.81,WNW,300,11.0,17.0,71,0.00,,,0.09,,2013-02-20 05:22:00,
2013-02-20 00:32:00,41.0,32.0,29.81,WNW,300,11.0,17.0,71,0.00,,,0.09,,2013-02-20 05:32:00,
2013-02-20 00:43:00,41.0,32.0,29.81,WNW,300,11.0,17.0,71,0.00,,,0.09,,2013-02-20 05:43:00,
2013-02-20 00:52:00,40.0,31.0,29.82,WNW,290,5.0,15.0,71,0.00,,,0.09,,2013-02-20 05:52:00,
2013-02-20 01:02:00,40.0,31.0,29.82,WNW,290,5.0,15.0,71,0.00,,,0.09,,2013-02-20 06:02:00,
2013-02-20 01:11:00,40.0,31.0,29.82,WNW,290,5.0,15.0,71,0.00,,,0.09,,2013-02-20 06:11:00,
2013-02-20 01:22:00,39.0,30.0,29.82,NW,305,7.0,15.0,69,0.00,,,0.09,,2013-02-20 06:22:00,
2013-02-20 01:32:00,39.0,30.0,29.82,NW,305,7.0,15.0,69,0.00,,,0.09,,2013-02-20 06:32:00,
2013-02-20 01:42:00,39.0,30.0,29.82,NW,305,7.0,15.0,69,0.00,,,0.09,,2013-02-20 06:42:00,
2013-02-20 01:52:00,38.0,28.0,29.82,NW,308,5.0,16.0,68,0.00,,,0.09,,2013-02-20 06:52:00,
2013-02-20 02:02:00,38.0,28.0,29.82,NW,308,5.0,16.0,68,0.00,,,0.09,,2013-02-20 07:02:00,
2013-02-20 02:11:00,38.0,28.0,29.82,NW,308,5.0,16.0,68,0.00,,,0.09,,2013-02-20 07:11:00,
2013-02-20 02:21:00,37.0,28.0,29.83,WNW,288,4.0,13.0,70,0.00,,,0.09,,2013-02-20 07:21:00,
2013-02-20 02:31:00,37.0,26.0,29.84,NW,306,7.0,16.0,64,0.00,,,0.09,,2013-02-20 07:31:00,
2013-02-20 02:32:00,37.0,28.0,29.83,WNW,288,4.0,13.0,70,0.00,,,0.09,,2013-02-20 07:32:00,
2013-02-20 02:42:00,37.0,28.0,29.83,WNW,288,4.0,13.0,70,0.00,,,0.09,,2013-02-20 07:42:00,
2013-02-20 02:52:00,37.0,26.0,29.84,NW,306,7.0,16.0,64,0.00,,,0.09,,2013-02-20 07:52:00,
2013-02-20 03:05:00,37.0,26.0,29.84,NW,306,7.0,16.0,64,0.00,,,0.09,,2013-02-20 08:05:00,
2013-02-20 03:11:00,37.0,26.0,29.84,NW,306,7.0,16.0,64,0.00,,,0.09,,2013-02-20 08:11:00,
2013-02-20 03:22:00,37.0,26.0,29.84,NW,306,7.0,16.0,64,0.00,,,0.09,,2013-02-20 08:22:00,
2013-02-20 03:52:00,37.0,26.0,29.85,WNW,300,8.0,18.0,64,0.00,,,0.09,,2013-02-20 08:52:00,
2013-02-20 04:02:00,37.0,26.0,29.85,WNW,300,8.0,18.0,64,0.00,,,0.09,,2013-02-20 09:02:00,
2013-02-20 04:11:00,37.0,26.0,29.85,WNW,300,8.0,18.0,64,0.00,,,0.09,,2013-02-20 09:11:00,
2013-02-20 04:21:00,36.0,24.0,29.85,WNW,290,9.0,21.0,62,0.00,,,0.09,,2013-02-20 09:21:00,
2013-02-20 04:32:00,36.0,24.0,29.85,WNW,290,9.0,21.0,62,0.00,,,0.09,,2013-02-20 09:32:00,
2013-02-20 04:42:00,36.0,24.0,29.85,WNW,290,9.0,21.0,62,0.00,,,0.09,,2013-02-20 09:42:00,
2013-02-20 04:52:00,36.0,23.0,29.86,NNW,330,13.0,23.0,59,0.00,,,0.09,,2013-02-20 09:52:00,
2013-02-20 05:01:00,36.0,23.0,29.86,NNW,330,13.0,23.0,59,0.00,,,0.09,,2013-02-20 10:01:00,
2013-02-20 05:12:00,36.0,23.0,29.86,NNW,330,13.0,23.0,59,0.00,,,0.09,,2013-02-20 10:12:00,
2013-02-20 05:22:00,35.0,23.0,29.87,SW,232,12.0,20.0,61,0.00,,,0.09,,2013-02-20 10:22:00,
2013-02-20 05:32:00,35.0,23.0,29.87,SW,232,12.0,20.0,61,0.00,,,0.09,,2013-02-20 10:32:00,
2013-02-20 05:42:00,35.0,23.0,29.87,SW,232,12.0,20.0,61,0.00,,,0.09,,2013-02-20 10:42:00,
2013-02-20 05:52:00,35.0,24.0,29.88,WNW,290,3.0,20.0,63,0.00,,,0.09,,2013-02-20 10:52:00,
2013-02-20 06:02:00,35.0,24.0,29.88,WNW,290,3.0,20.0,63,0.00,,,0.09,,2013-02-20 11:02:00,
2013-02-20 06:11:00,34.0,20.0,29.89,NW,319,9.0,20.0,57,0.00,,,0.09,,2013-02-20 11:11:00,
2013-02-20 06:21:00,34.0,20.0,29.89,NW,319,9.0,20.0,57,0.00,,,0.09,,2013-02-20 11:21:00,
2013-02-20 06:32:00,34.0,20.0,29.89,NW,319,9.0,20.0,57,0.00,,,0.09,,2013-02-20 11:32:00,
2013-02-20 06:42:00,34.0,20.0,29.89,NW,319,9.0,20.0,57,0.00,,,0.09,,2013-02-20 11:42:00,
2013-02-20 06:52:00,33.0,19.0,29.91,WNW,290,8.0,21.0,55,0.00,,,0.09,,2013-02-20 11:52:00,
2013-02-20 07:02:00,33.0,19.0,29.91,WNW,290,8.0,21.0,55,0.00,,,0.09,,2013-02-20 12:02:00,
2013-02-20 07:12:00,33.0,19.0,29.91,WNW,290,8.0,21.0,55,0.00,,,0.09,,2013-02-20 12:12:00,
2013-02-20 07:22:00,33.0,18.0,29.93,WSW,242,10.0,19.0,54,0.00,,,0.09,,2013-02-20 12:22:00,
2013-02-20 07:32:00,33.0,18.0,29.93,WSW,242,10.0,19.0,54,0.00,,,0.09,,2013-02-20 12:32:00,
2013-02-20 07:42:00,33.0,18.0,29.93,WSW,242,10.0,19.0,54,0.00,,,0.09,,2013-02-20 12:42:00,
2013-02-20 07:53:00,33.0,19.0,29.93,WNW,290,11.0,17.0,56,0.00,,,0.09,,2013-02-20 12:53:00,
2013-02-20 08:01:00,33.0,19.0,29.93,WNW,290,11.0,17.0,56,0.00,,,0.09,,2013-02-20 13:01:00,
2013-02-20 08:12:00,33.0,19.0,29.93,WNW,290,11.0,17.0,56,0.00,,,0.09,,2013-02-20 13:12:00,
2013-02-20 08:22:00,34.0,20.0,29.94,NW,319,8.0,16.0,55,0.00,,,0.09,,2013-02-20 13:22:00,
2013-02-20 08:32:00,34.0,20.0,29.94,NW,319,8.0,16.0,55,0.00,,,0.09,,2013-02-20 13:32:00,
2013-02-20 08:42:00,34.0,20.0,29.94,NW,319,8.0,16.0,55,0.00,,,0.09,,2013-02-20 13:42:00,
2013-02-20 08:52:00,35.0,20.0,29.95,NNW,336,10.0,17.0,54,0.00,,,0.09,,2013-02-20 13:52:00,
2013-02-20 09:01:00,35.0,20.0,29.95,NNW,336,10.0,17.0,54,0.00,,,0.09,,2013-02-20 14:01:00,
2013-02-20 09:11:00,35.0,20.0,29.95,NNW,336,10.0,17.0,54,0.00,,,0.09,,2013-02-20 14:11:00,
2013-02-20 09:22:00,35.0,20.0,29.94,West,269,18.0,22.0,53,0.00,,,0.09,,2013-02-20 14:22:00,
2013-02-20 09:32:00,35.0,20.0,29.94,West,269,18.0,22.0,53,0.00,,,0.09,,2013-02-20 14:32:00,
2013-02-20 09:42:00,35.0,20.0,29.94,West,269,18.0,22.0,53,0.00,,,0.09,,2013-02-20 14:42:00,
2013-02-20 09:52:00,35.0,20.0,29.94,North,11,13.0,22.0,53,0.00,,,0.09,,2013-02-20 14:52:00,
2013-02-20 10:02:00,35.0,20.0,29.94,North,11,13.0,22.0,53,0.00,,,0.09,,2013-02-20 15:02:00,
2013-02-20 10:12:00,35.0,20.0,29.94,North,11,13.0,22.0,53,0.00,,,0.09,,2013-02-20 15:12:00,
2013-02-20 10:22:00,35.0,20.0,29.95,WSW,246,13.0,22.0,55,0.00,,,0.09,,2013-02-20 15:22:00,
2013-02-20 10:32:00,35.0,20.0,29.95,WSW,246,13.0,22.0,55,0.00,,,0.09,,2013-02-20 15:32:00,
2013-02-20 10:42:00,35.0,20.0,29.95,WSW,246,13.0,22.0,55,0.00,,,0.09,,2013-02-20 15:42:00,
2013-02-20 10:52:00,35.0,20.0,29.95,NNW,329,12.0,21.0,54,0.00,,,0.09,,2013-02-20 15:52:00,
2013-02-20 11:01:00,35.0,20.0,29.95,NNW,329,12.0,21.0,54,0.00,,,0.09,,2013-02-20 16:01:00,
2013-02-20 11:12:00,35.0,20.0,29.95,NNW,329,12.0,21.0,54,0.00,,,0.09,,2013-02-20 16:12:00,
2013-02-20 11:22:00,35.0,21.0,29.95,WSW,246,15.0,25.0,57,0.00,,,0.09,,2013-02-20 16:22:00,
2013-02-20 11:32:00,35.0,21.0,29.95,WSW,246,15.0,25.0,57,0.00,,,0.09,,2013-02-20 16:32:00,
2013-02-20 11:42:00,35.0,21.0,29.95,WSW,246,15.0,25.0,57,0.00,,,0.09,,2013-02-20 16:42:00,
2013-02-20 11:52:00,34.0,20.0,29.95,NW,313,12.0,27.0,55,0.00,,,0.09,,2013-02-20 16:52:00,
2013-02-20 12:01:00,34.0,20.0,29.95,NW,313,12.0,27.0,55,0.00,,,0.09,,2013-02-20 17:01:00,
2013-02-20 12:11:00,34.0,20.0,29.96,West,269,16.0,31.0,56,0.00,,,0.09,,2013-02-20 17:11:00,
2013-02-20 12:21:00,34.0,20.0,29.96,West,269,16.0,31.0,56,0.00,,,0.09,,2013-02-20 17:21:00,
2013-02-20 12:32:00,34.0,20.0,29.96,West,269,16.0,31.0,56,0.00,,,0.09,,2013-02-20 17:32:00,
2013-02-20 12:42:00,34.0,20.0,29.96,West,269,16.0,31.0,56,0.00,,,0.09,,2013-02-20 17:42:00,
2013-02-20 12:52:00,34.0,20.0,29.95,West,271,8.0,30.0,56,0.00,,,0.09,,2013-02-20 17:52:00,
2013-02-20 13:01:00,34.0,17.0,29.94,West,267,17.0,33.0,50,0.00,,,0.08,,2013-02-20 18:01:00,
2013-02-20 13:02:00,34.0,20.0,29.95,West,271,8.0,30.0,56,0.00,,,0.09,,2013-02-20 18:02:00,
2013-02-20 13:11:00,34.0,20.0,29.95,West,271,8.0,30.0,56,0.00,,,0.09,,2013-02-20 18:11:00,
2013-02-20 13:22:00,34.0,17.0,29.94,West,267,17.0,33.0,50,0.00,,,0.08,,2013-02-20 18:22:00,
2013-02-20 13:32:00,34.0,17.0,29.94,West,267,17.0,33.0,50,0.00,,,0.08,,2013-02-20 18:32:00,
2013-02-20 13:42:00,34.0,17.0,29.94,West,267,17.0,33.0,50,0.00,,,0.08,,2013-02-20 18:42:00,
2013-02-20 13:52:00,34.0,17.0,29.94,West,267,17.0,33.0,50,0.00,,,0.08,,2013-02-20 18:52:00,
2013-02-20 14:21:00,35.0,18.0,29.94,NW,307,9.0,30.0,50,0.00,,,0.07,,2013-02-20 19:21:00,
2013-02-20 14:32:00,35.0,18.0,29.94,NW,307,9.0,30.0,50,0.00,,,0.07,,2013-02-20 19:32:00,
2013-02-20 14:42:00,35.0,18.0,29.94,NW,307,9.0,30.0,50,0.00,,,0.07,,2013-02-20 19:42:00,
2013-02-20 14:52:00,35.0,18.0,29.94,NW,313,16.0,32.0,50,0.00,,,0.07,,2013-02-20 19:52:00,
2013-02-20 15:01:00,35.0,18.0,29.94,NW,313,16.0,32.0,50,0.00,,,0.07,,2013-02-20 20:01:00,
2013-02-20 15:11:00,36.0,19.0,29.94,West,269,8.0,29.0,50,0.00,,,0.07,,2013-02-20 20:11:00,
2013-02-20 15:21:00,36.0,19.0,29.94,West,269,8.0,29.0,50,0.00,,,0.07,,2013-02-20 20:21:00,
2013-02-20 15:31:00,36.0,19.0,29.94,West,269,8.0,29.0,50,0.00,,,0.07,,2013-02-20 20:31:00,
2013-02-20 15:41:00,36.0,19.0,29.94,West,269,8.0,29.0,50,0.00,,,0.07,,2013-02-20 20:41:00,
2013-02-20 15:52:00,35.0,17.0,29.95,West,280,19.0,28.0,48,0.00,,,0.06,,2013-02-20 20:52:00,
2013-02-20 16:01:00,35.0,17.0,29.95,West,280,19.0,28.0,48,0.00,,,0.06,,2013-02-20 21:01:00,
2013-02-20 16:11:00,35.0,17.0,29.95,West,280,19.0,28.0,48,0.00,,,0.06,,2013-02-20 21:11:00,
2013-02-20 16:21:00,35.0,17.0,29.95,West,280,19.0,28.0,48,0.00,,,0.06,,2013-02-20 21:21:00,
2013-02-20 16:31:00,35.0,17.0,29.95,West,280,19.0,28.0,48,0.00,,,0.06,,2013-02-20 21:31:00,
2013-02-20 16:52:00,34.0,16.0,29.98,WNW,300,22.0,31.0,48,0.00,,,0.03,,2013-02-20 21:52:00,
2013-02-20 17:02:00,34.0,16.0,29.98,WNW,300,22.0,31.0,48,0.00,,,0.03,,2013-02-20 22:02:00,
2013-02-20 17:11:00,34.0,16.0,29.98,WNW,300,22.0,31.0,48,0.00,,,0.03,,2013-02-20 22:11:00,
2013-02-20 17:21:00,34.0,17.0,30.00,WNW,290,6.0,29.0,50,0.00,,,0.03,,2013-02-20 22:21:00,
2013-02-20 17:31:00,34.0,17.0,30.00,WNW,290,6.0,29.0,50,0.00,,,0.03,,2013-02-20 22:31:00,
2013-02-20 17:43:00,34.0,17.0,30.00,WNW,290,6.0,29.0,50,0.00,,,0.03,,2013-02-20 22:43:00,
2013-02-20 17:52:00,33.0,17.0,30.00,WNW,290,13.0,21.0,52,0.00,,,0.01,,2013-02-20 22:52:00,
2013-02-20 18:01:00,33.0,17.0,30.00,WNW,290,13.0,21.0,52,0.00,,,0.01,,2013-02-20 23:01:00,
2013-02-20 18:12:00,33.0,17.0,30.00,WNW,290,13.0,21.0,52,0.00,,,0.01,,2013-02-20 23:12:00,
2013-02-20 18:22:00,32.0,16.0,30.01,NW,326,4.0,23.0,52,0.00,,,0.00,,2013-02-20 23:22:00,
2013-02-20 18:32:00,32.0,16.0,30.01,NW,326,4.0,23.0,52,0.00,,,0.00,,2013-02-20 23:32:00,
2013-02-20 18:42:00,32.0,16.0,30.01,NW,326,4.0,23.0,52,0.00,,,0.00,,2013-02-20 23:42:00,
2013-02-20 18:53:00,31.0,16.0,30.02,WNW,300,8.0,22.0,53,0.00,,,0.00,,2013-02-20 23:53:00,
2013-02-20 19:03:00,31.0,16.0,30.02,WNW,300,8.0,22.0,53,0.00,,,0.00,,2013-02-21 00:03:00,
2013-02-20 19:11:00,31.0,16.0,30.02,WNW,300,8.0,22.0,53,0.00,,,0.00,,2013-02-21 00:11:00,
2013-02-20 19:22:00,30.0,14.0,30.04,North,353,7.0,24.0,51,0.00,,,0.00,,2013-02-21 00:22:00,
2013-02-20 19:32:00,30.0,14.0,30.04,North,353,7.0,24.0,51,0.00,,,0.00,,2013-02-21 00:32:00,
2013-02-20 19:42:00,30.0,14.0,30.04,North,353,7.0,24.0,51,0.00,,,0.00,,2013-02-21 00:42:00,
2013-02-20 19:52:00,30.0,15.0,30.04,West,278,9.0,19.0,52,0.00,,,0.00,,2013-02-21 00:52:00,
2013-02-20 20:01:00,30.0,15.0,30.04,West,278,9.0,19.0,52,0.00,,,0.00,,2013-02-21 01:01:00,
2013-02-20 20:12:00,30.0,15.0,30.04,West,278,9.0,19.0,52,0.00,,,0.00,,2013-02-21 01:12:00,
2013-02-20 20:21:00,29.0,15.0,30.06,West,262,13.0,14.0,55,0.00,,,0.00,,2013-02-21 01:21:00,
2013-02-20 20:32:00,29.0,15.0,30.06,West,262,13.0,14.0,55,0.00,,,0.00,,2013-02-21 01:32:00,
2013-02-20 20:42:00,29.0,15.0,30.06,West,262,13.0,14.0,55,0.00,,,0.00,,2013-02-21 01:42:00,
2013-02-20 20:52:00,29.0,14.0,30.07,West,277,12.0,16.0,53,0.00,,,0.00,,2013-02-21 01:52:00,
2013-02-20 21:02:00,29.0,14.0,30.07,West,277,12.0,16.0,53,0.00,,,0.00,,2013-02-21 02:02:00,
2013-02-20 21:11:00,29.0,14.0,30.07,West,277,12.0,16.0,53,0.00,,,0.00,,2013-02-21 02:11:00,
2013-02-20 21:22:00,29.0,14.0,30.08,SW,233,11.0,18.0,52,0.00,,,0.00,,2013-02-21 02:22:00,
2013-02-20 21:32:00,29.0,14.0,30.08,SW,233,11.0,18.0,52,0.00,,,0.00,,2013-02-21 02:32:00,
2013-02-20 21:42:00,29.0,14.0,30.08,SW,233,11.0,18.0,52,0.00,,,0.00,,2013-02-21 02:42:00,
2013-02-20 21:52:00,29.0,14.0,30.08,SW,233,11.0,18.0,52,0.00,,,0.00,,2013-02-21 02:52:00,
2013-02-20 22:02:00,29.0,14.0,30.08,NW,304,13.0,24.0,52,0.00,,,0.00,,2013-02-21 03:02:00,
2013-02-20 22:12:00,29.0,14.0,30.08,NW,304,13.0,24.0,52,0.00,,,0.00,,2013-02-21 03:12:00,
2013-02-20 22:21:00,28.0,14.0,30.08,WNW,287,9.0,21.0,55,0.00,,,0.00,,2013-02-21 03:21:00,
2013-02-20 22:32:00,28.0,14.0,30.08,WNW,287,9.0,21.0,55,0.00,,,0.00,,2013-02-21 03:32:00,
2013-02-20 22:42:00,28.0,14.0,30.08,WNW,287,9.0,21.0,55,0.00,,,0.00,,2013-02-21 03:42:00,
2013-02-20 22:52:00,28.0,14.0,30.08,West,277,6.0,18.0,56,0.00,,,0.00,,2013-02-21 03:52:00,
2013-02-20 23:01:00,28.0,14.0,30.08,West,277,6.0,18.0,56,0.00,,,0.00,,2013-02-21 04:01:00,
2013-02-20 23:11:00,28.0,14.0,30.08,West,277,6.0,18.0,56,0.00,,,0.00,,2013-02-21 04:11:00,
2013-02-20 23:22:00,28.0,14.0,30.09,NW,309,11.0,20.0,56,0.00,,,0.00,,2013-02-21 04:22:00,
2013-02-20 23:32:00,28.0,14.0,30.09,NW,309,11.0,20.0,56,0.00,,,0.00,,2013-02-21 04:32:00,
2013-02-20 23:42:00,28.0,14.0,30.09,NW,309,11.0,20.0,56,0.00,,,0.00,,2013-02-21 04:42:00,
2013-02-20 23:52:00,27.0,14.0,30.09,West,260,8.0,16.0,58,0.00,,,0.00,,2013-02-21 04:52:00,